Time;durP1;ratioP1;P1;durP2;ratioP2;P2;SDS_P1;SDS_P2;PMS_P1;PMS_P2;Temp;Humidity;BMP_temperature;BMP_pressure;BME280_temperature;BME280_humidity;BME280_pressure;Samples;Min_cycle;Max_cycle;Signal;HPM_P1;HPM_P2
2023/08/03 00:00:45;;;;;;;11.10;1.25;;;;;;;17.59;77.01;95894.47;5063437;28;20051;-54
2023/08/03 00:03:11;;;;;;;6.63;1.13;;;;;;;17.58;76.71;95892.88;5064611;28;20045;-56
2023/08/03 00:05:38;;;;;;;6.82;0.98;;;;;;;17.54;76.74;95898.19;5064922;28;20036;-54
2023/08/03 00:08:05;;;;;;;7.78;1.33;;;;;;;17.58;76.30;95901.88;5064289;28;20044;-54
2023/08/03 00:10:32;;;;;;;8.07;1.00;;;;;;;17.52;75.80;95889.53;5064444;28;20072;-55
2023/08/03 00:12:59;;;;;;;5.90;1.20;;;;;;;17.49;75.71;95888.28;5064328;28;20036;-54
2023/08/03 00:15:25;;;;;;;6.60;1.20;;;;;;;17.45;75.29;95894.75;5061942;28;20068;-55
2023/08/03 00:17:52;;;;;;;5.13;1.02;;;;;;;17.37;76.23;95894.50;5064136;28;20036;-55
2023/08/03 00:20:19;;;;;;;5.20;1.00;;;;;;;17.42;75.70;95888.00;5063924;28;20040;-55
2023/08/03 00:22:46;;;;;;;4.78;1.10;;;;;;;17.40;75.26;95896.53;5064022;28;20052;-56
2023/08/03 00:25:13;;;;;;;7.95;0.95;;;;;;;17.40;75.40;95893.81;5064104;28;20040;-56
2023/08/03 00:27:40;;;;;;;4.88;0.93;;;;;;;17.44;74.12;95895.88;5062757;28;20040;-56
2023/08/03 00:30:07;;;;;;;10.10;1.45;;;;;;;17.48;73.96;95902.28;5064087;28;20125;-55
2023/08/03 00:32:33;;;;;;;4.72;1.30;;;;;;;17.46;73.14;95899.09;5063426;28;20033;-55
2023/08/03 00:35:00;;;;;;;4.80;0.98;;;;;;;17.46;72.51;95902.63;5064123;28;20131;-55
2023/08/03 00:37:28;;;;;;;3.15;0.90;;;;;;;17.46;72.60;95901.84;5061805;28;20043;-55
2023/08/03 00:39:55;;;;;;;6.35;1.17;;;;;;;17.36;73.97;95912.00;5061682;28;20040;-54
2023/08/03 00:42:21;;;;;;;6.07;1.17;;;;;;;17.46;72.78;95908.09;5061938;28;20053;-56
2023/08/03 00:44:48;;;;;;;3.95;0.75;;;;;;;17.41;73.23;95905.56;5063850;28;20043;-56
2023/08/03 00:47:14;;;;;;;4.35;1.05;;;;;;;17.32;73.54;95894.66;5062214;28;20123;-54
2023/08/03 00:49:41;;;;;;;3.60;1.00;;;;;;;17.44;72.34;95898.63;5061908;28;20068;-53
2023/08/03 00:52:07;;;;;;;4.75;0.80;;;;;;;17.27;73.06;95898.41;5063500;28;20040;-55
2023/08/03 00:54:36;;;;;;;4.72;0.82;;;;;;;17.28;73.22;95897.28;5062935;28;20036;-56
2023/08/03 00:57:03;;;;;;;7.22;1.30;;;;;;;17.29;73.35;95895.34;5063035;28;20621;-55
2023/08/03 00:59:30;;;;;;;6.72;1.98;;;;;;;17.21;73.11;95888.78;5062674;28;20075;-56
2023/08/03 01:01:56;;;;;;;6.65;1.27;;;;;;;17.24;73.31;95901.81;5062687;28;20044;-54
2023/08/03 01:04:23;;;;;;;3.58;0.88;;;;;;;17.26;73.26;95899.56;5062492;28;20036;-57
2023/08/03 01:06:51;;;;;;;5.07;0.80;;;;;;;17.21;73.69;95912.63;5051819;28;20059;-56
2023/08/03 01:09:19;;;;;;;10.38;2.15;;;;;;;17.17;73.85;95893.31;5060623;28;20048;-54
2023/08/03 01:11:46;;;;;;;4.60;1.08;;;;;;;17.17;74.04;95901.50;5062014;28;20888;-54
2023/08/03 01:14:12;;;;;;;4.97;0.93;;;;;;;17.18;74.20;95900.41;5062072;28;20043;-55
2023/08/03 01:16:39;;;;;;;4.68;0.85;;;;;;;17.14;74.59;95908.44;5062011;28;20048;-56
2023/08/03 01:19:08;;;;;;;5.03;1.48;;;;;;;17.09;75.29;95905.91;5061119;28;20586;-56
2023/08/03 01:21:36;;;;;;;5.15;1.42;;;;;;;17.11;75.22;95905.59;5061819;28;20036;-57
2023/08/03 01:24:03;;;;;;;6.20;1.23;;;;;;;16.98;76.94;95901.91;5059419;28;20495;-55
2023/08/03 01:26:29;;;;;;;5.80;1.50;;;;;;;16.99;76.20;95903.53;5061216;28;20045;-55
2023/08/03 01:28:56;;;;;;;6.07;1.10;;;;;;;16.99;76.15;95898.84;5062442;28;20128;-53
2023/08/03 01:31:23;;;;;;;6.78;1.55;;;;;;;16.95;76.76;95900.66;5060859;28;20044;-55
2023/08/03 01:33:49;;;;;;;5.35;1.20;;;;;;;17.07;76.15;95897.25;5062004;28;20458;-57
2023/08/03 01:36:16;;;;;;;4.57;0.88;;;;;;;17.09;75.77;95899.63;5061811;28;20115;-57
2023/08/03 01:38:44;;;;;;;4.47;1.05;;;;;;;16.99;76.64;95898.06;5060110;28;20051;-54
2023/08/03 01:41:10;;;;;;;4.15;1.05;;;;;;;16.98;77.01;95902.72;5061125;28;20121;-57
2023/08/03 01:43:37;;;;;;;6.88;1.50;;;;;;;17.01;76.48;95907.53;5062807;28;20170;-56
2023/08/03 01:46:05;;;;;;;4.68;1.15;;;;;;;16.85;77.01;95903.78;5060795;28;20037;-56
2023/08/03 01:48:32;;;;;;;6.20;1.40;;;;;;;16.83;78.00;95906.81;5060932;28;20044;-54
2023/08/03 01:50:58;;;;;;;3.95;0.90;;;;;;;16.69;77.98;95896.13;5064007;28;20046;-57
2023/08/03 01:53:25;;;;;;;6.55;1.80;;;;;;;16.58;78.39;95906.59;5061643;28;20048;-57
2023/08/03 01:55:51;;;;;;;3.08;0.77;;;;;;;16.57;78.45;95909.66;5060539;28;20059;-57
2023/08/03 01:58:18;;;;;;;4.43;1.30;;;;;;;16.50;79.05;95902.78;5060169;28;20040;-57
2023/08/03 02:00:44;;;;;;;5.80;1.15;;;;;;;16.48;78.63;95921.41;5060149;28;20139;-57
2023/08/03 02:03:14;;;;;;;3.65;0.93;;;;;;;16.60;77.10;95909.81;5063314;28;20051;-57
2023/08/03 02:05:40;;;;;;;4.13;0.70;;;;;;;16.59;76.00;95916.41;5058561;28;20086;-58
2023/08/03 02:08:07;;;;;;;3.80;0.95;;;;;;;16.52;75.45;95924.31;5060908;28;20037;-57
2023/08/03 02:10:35;;;;;;;4.90;1.33;;;;;;;16.51;74.73;95922.69;5060452;28;20040;-57
2023/08/03 02:13:02;;;;;;;8.35;1.15;;;;;;;16.52;73.71;95927.84;5060515;28;20127;-57
2023/08/03 02:15:28;;;;;;;5.97;0.90;;;;;;;16.60;72.54;95936.34;5059700;28;20089;-57
2023/08/03 02:17:55;;;;;;;3.80;0.85;;;;;;;16.65;71.92;95938.88;5064508;28;20094;-57
2023/08/03 02:20:21;;;;;;;3.85;0.63;;;;;;;16.72;71.29;95933.72;5064482;28;20652;-57
2023/08/03 02:22:48;;;;;;;6.47;0.93;;;;;;;16.72;71.01;95932.91;5067009;28;20123;-57
2023/08/03 02:25:15;;;;;;;6.00;0.63;;;;;;;16.74;70.82;95945.13;5063554;28;20507;-57
2023/08/03 02:27:42;;;;;;;2.75;0.47;;;;;;;16.67;71.27;95944.03;5065243;28;20531;-57
2023/08/03 02:30:09;;;;;;;3.70;0.50;;;;;;;16.59;72.32;95941.00;5063865;28;20040;-57
2023/08/03 02:32:38;;;;;;;2.92;0.60;;;;;;;16.50;73.12;95946.50;5061915;28;20121;-57
2023/08/03 02:35:06;;;;;;;2.67;0.65;;;;;;;16.47;74.06;95935.44;5064371;28;20708;-57
2023/08/03 02:37:33;;;;;;;5.57;0.73;;;;;;;16.33;75.03;95944.59;5065038;28;20533;-57
2023/08/03 02:40:08;;;;;;;3.42;0.55;;;;;;;16.22;76.34;95957.00;5066098;28;20592;-56
2023/08/03 02:42:36;;;;;;;2.80;0.40;;;;;;;16.10;77.52;95958.47;5064360;28;20037;-57
2023/08/03 02:45:03;;;;;;;1.75;0.45;;;;;;;15.97;79.35;95949.34;5063509;28;20075;-57
2023/08/03 02:47:30;;;;;;;2.65;0.57;;;;;;;15.89;80.21;95950.09;5062392;28;20040;-57
2023/08/03 02:49:57;;;;;;;4.18;0.45;;;;;;;15.70;82.29;95942.25;5065246;28;20048;-57
2023/08/03 02:52:24;;;;;;;3.90;0.82;;;;;;;15.74;83.14;95945.94;5063291;28;20036;-57
2023/08/03 02:54:50;;;;;;;3.78;0.73;;;;;;;15.56;85.08;95943.16;5063871;28;20044;-57
2023/08/03 02:57:19;;;;;;;5.38;1.02;;;;;;;15.52;86.15;95950.38;5063345;28;20136;-57
2023/08/03 02:59:48;;;;;;;4.38;0.73;;;;;;;15.40;87.55;95953.75;5063189;28;20051;-57
2023/08/03 03:02:19;;;;;;;3.70;0.77;;;;;;;15.24;88.67;95950.69;5061603;28;20054;-57
2023/08/03 03:04:46;;;;;;;5.32;1.05;;;;;;;15.20;89.44;95958.69;5063396;28;20060;-54
2023/08/03 03:07:13;;;;;;;4.93;0.90;;;;;;;15.19;90.14;95964.47;5060980;28;20059;-55
2023/08/03 03:09:40;;;;;;;2.67;1.00;;;;;;;15.19;90.03;95967.97;5062907;28;20070;-55
2023/08/03 03:12:08;;;;;;;7.03;1.08;;;;;;;15.28;89.93;95959.00;5060479;28;20037;-56
2023/08/03 03:14:44;;;;;;;6.90;0.95;;;;;;;15.29;90.01;95949.72;5059845;28;20423;-57
2023/08/03 03:17:10;;;;;;;4.35;0.73;;;;;;;15.37;89.47;95946.19;5065099;28;20094;-56
2023/08/03 03:19:37;;;;;;;8.45;1.33;;;;;;;15.26;89.87;95939.47;5062982;28;20041;-55
2023/08/03 03:22:06;;;;;;;3.10;1.08;;;;;;;15.19;90.13;95940.72;5063812;28;20040;-57
2023/08/03 03:24:33;;;;;;;4.38;0.90;;;;;;;15.23;89.85;95953.72;5062677;28;20135;-57
2023/08/03 03:27:00;;;;;;;5.75;0.77;;;;;;;15.28;88.31;95959.00;5063714;28;20078;-57
2023/08/03 03:29:31;;;;;;;4.05;0.85;;;;;;;15.30;87.02;95959.50;5062961;28;20040;-57
2023/08/03 03:31:59;;;;;;;4.95;1.10;;;;;;;15.35;86.66;95953.91;5062578;28;20036;-57
2023/08/03 03:34:30;;;;;;;4.90;1.10;;;;;;;15.34;86.30;95944.91;5062104;28;20036;-57
2023/08/03 03:36:57;;;;;;;4.45;0.73;;;;;;;15.37;85.97;95951.66;5062281;28;20056;-57
2023/08/03 03:39:24;;;;;;;4.50;0.73;;;;;;;15.33;85.87;95958.84;5062163;28;20127;-56
2023/08/03 03:41:51;;;;;;;5.80;1.02;;;;;;;15.37;85.65;95950.88;5062738;28;20101;-57
2023/08/03 03:44:18;;;;;;;3.65;0.60;;;;;;;15.36;85.17;95955.50;5062901;28;20044;-57
2023/08/03 03:46:45;;;;;;;5.75;0.90;;;;;;;15.30;86.71;95959.50;5060942;28;20037;-57
2023/08/03 03:49:11;;;;;;;5.95;1.00;;;;;;;15.25;86.96;95951.50;5063253;28;20049;-57
2023/08/03 03:51:38;;;;;;;7.22;1.20;;;;;;;15.32;87.22;95957.25;5063688;28;20044;-57
2023/08/03 03:54:08;;;;;;;4.25;0.98;;;;;;;15.32;86.90;95960.00;5061653;28;20055;-57
2023/08/03 03:56:35;;;;;;;5.20;1.05;;;;;;;15.37;86.90;95973.47;5058978;28;20063;-57
2023/08/03 03:59:01;;;;;;;5.00;1.17;;;;;;;15.30;86.98;95960.31;5060643;28;20596;-56
2023/08/03 04:01:29;;;;;;;5.68;1.02;;;;;;;15.27;87.93;95962.88;5061171;28;20779;-56
2023/08/03 04:03:57;;;;;;;6.20;1.80;;;;;;;15.17;88.77;95959.31;5061362;28;20113;-57
2023/08/03 04:06:23;;;;;;;5.80;1.05;;;;;;;15.20;88.97;95964.16;5060252;28;20572;-57
2023/08/03 04:08:50;;;;;;;6.35;1.13;;;;;;;15.11;89.24;95946.16;5060720;28;20052;-56
2023/08/03 04:11:16;;;;;;;5.47;0.88;;;;;;;15.04;90.06;95960.25;5060692;28;20064;-56
2023/08/03 04:13:43;;;;;;;5.75;0.82;;;;;;;15.12;89.07;95959.47;5061388;28;20052;-57
2023/08/03 04:16:09;;;;;;;5.28;1.55;;;;;;;15.03;88.99;95966.78;5060399;28;20052;-56
2023/08/03 04:18:36;;;;;;;4.28;0.82;;;;;;;15.13;88.63;95974.72;5060012;28;20071;-57
2023/08/03 04:21:03;;;;;;;6.47;0.82;;;;;;;15.05;88.35;95986.38;5057846;28;20040;-57
2023/08/03 04:23:29;;;;;;;4.82;1.38;;;;;;;15.02;88.29;95979.66;5060019;28;20097;-56
2023/08/03 04:25:57;;;;;;;3.63;0.60;;;;;;;15.11;86.63;95985.09;5058797;28;20129;-57
2023/08/03 04:28:25;;;;;;;1.55;0.80;;;;;;;15.23;85.02;96000.88;5060142;28;20068;-57
2023/08/03 04:30:51;;;;;;;5.18;1.05;;;;;;;15.29;84.36;96007.00;5061643;28;20128;-57
2023/08/03 04:33:18;;;;;;;6.43;1.08;;;;;;;15.31;84.05;96007.47;5060161;28;20040;-55
2023/08/03 04:35:50;;;;;;;3.08;1.33;;;;;;;15.37;81.88;96013.59;5060143;28;20048;-56
2023/08/03 04:38:21;;;;;;;8.70;0.93;;;;;;;15.50;80.52;96020.03;5057861;28;20048;-55
2023/08/03 04:40:51;;;;;;;4.72;0.77;;;;;;;15.50;80.83;96026.28;5060103;28;20780;-55
2023/08/03 04:43:23;;;;;;;4.05;1.05;;;;;;;15.51;80.68;96022.44;5059893;28;20084;-57
2023/08/03 04:45:49;;;;;;;2.40;0.65;;;;;;;15.50;80.80;96030.94;5059430;28;20145;-57
2023/08/03 04:48:16;;;;;;;4.53;1.55;;;;;;;15.57;80.00;96039.47;5063171;28;20052;-55
2023/08/03 04:50:42;;;;;;;5.07;1.23;;;;;;;15.66;79.95;96034.81;5058997;28;20764;-55
2023/08/03 04:53:12;;;;;;;4.35;0.63;;;;;;;15.83;79.08;96044.16;5059868;28;20056;-57
2023/08/03 04:55:40;;;;;;;2.50;0.60;;;;;;;15.95;78.15;96052.56;5059070;28;20527;-54
2023/08/03 04:58:07;;;;;;;5.32;0.75;;;;;;;15.93;78.32;96054.78;5059683;28;20147;-55
2023/08/03 05:00:36;;;;;;;4.55;0.50;;;;;;;16.11;77.66;96052.88;5060314;28;20143;-57
2023/08/03 05:03:03;;;;;;;5.72;0.82;;;;;;;16.18;77.24;96063.31;5061827;28;20049;-55
2023/08/03 05:05:30;;;;;;;2.83;0.40;;;;;;;16.28;76.59;96066.88;5059433;28;20044;-51
2023/08/03 05:07:57;;;;;;;3.38;0.68;;;;;;;16.29;76.08;96068.47;5059636;28;20043;-57
2023/08/03 05:10:25;;;;;;;3.28;0.75;;;;;;;16.28;76.78;96072.34;5058755;28;20099;-55
2023/08/03 05:12:51;;;;;;;3.80;0.75;;;;;;;16.28;77.62;96069.63;5059506;28;20047;-54
2023/08/03 05:15:18;;;;;;;2.50;0.45;;;;;;;16.37;76.46;96076.66;5059868;28;20051;-56
2023/08/03 05:17:46;;;;;;;5.10;0.90;;;;;;;16.45;76.08;96077.00;5059001;28;20139;-57
2023/08/03 05:20:13;;;;;;;4.18;0.52;;;;;;;16.54;76.36;96077.78;5060407;28;20070;-54
2023/08/03 05:22:39;;;;;;;3.78;0.75;;;;;;;16.44;77.72;96080.84;5058687;28;20075;-57
2023/08/03 05:25:06;;;;;;;1.98;0.70;;;;;;;16.40;77.10;96088.09;5060370;28;20040;-54
2023/08/03 05:27:33;;;;;;;2.65;0.57;;;;;;;16.44;77.32;96095.31;5057425;28;20047;-57
2023/08/03 05:30:00;;;;;;;3.22;0.40;;;;;;;16.43;77.87;96093.69;5060152;28;20044;-55
2023/08/03 05:32:27;;;;;;;2.78;0.50;;;;;;;16.23;78.98;96092.41;5058726;28;20044;-57
2023/08/03 05:34:54;;;;;;;2.47;0.40;;;;;;;16.29;78.73;96093.06;5060146;28;20110;-56
2023/08/03 05:37:20;;;;;;;3.28;0.55;;;;;;;16.28;79.58;96100.44;5060557;28;20109;-57
2023/08/03 05:39:47;;;;;;;0.93;0.30;;;;;;;16.25;80.53;96112.00;5059852;28;20070;-57
2023/08/03 05:42:14;;;;;;;2.15;0.30;;;;;;;16.30;80.54;96120.06;5060175;28;20044;-57
2023/08/03 05:44:41;;;;;;;5.25;0.43;;;;;;;16.20;81.36;96109.44;5058834;28;20121;-57
2023/08/03 05:47:10;;;;;;;1.88;0.47;;;;;;;16.18;81.59;96123.41;5057991;28;20045;-57
2023/08/03 05:49:39;;;;;;;2.45;0.50;;;;;;;16.19;82.45;96119.56;5058478;28;20537;-57
2023/08/03 05:52:09;;;;;;;2.30;0.38;;;;;;;16.00;83.04;96128.06;5059424;28;20123;-57
2023/08/03 05:54:36;;;;;;;1.65;0.30;;;;;;;15.77;85.86;96136.28;5059118;28;20055;-57
2023/08/03 05:57:04;;;;;;;2.38;0.43;;;;;;;15.59;90.48;96140.91;5060135;28;20041;-57
2023/08/03 05:59:30;;;;;;;1.38;0.30;;;;;;;15.26;98.01;96144.75;5059264;28;20072;-56
2023/08/03 06:01:57;;;;;;;4.25;0.43;;;;;;;14.83;100.00;96148.81;5059390;28;20047;-56
2023/08/03 06:04:24;;;;;;;3.75;0.52;;;;;;;14.66;100.00;96152.19;5060079;28;20638;-56
2023/08/03 06:06:50;;;;;;;1.48;0.30;;;;;;;14.50;100.00;96166.19;5059782;28;20040;-56
2023/08/03 06:09:19;;;;;;;3.10;0.50;;;;;;;14.21;100.00;96153.75;5060225;28;20063;-56
2023/08/03 06:11:45;;;;;;;0.98;0.20;;;;;;;14.06;100.00;96154.88;5059108;28;20056;-57
2023/08/03 06:14:15;;;;;;;2.25;0.50;;;;;;;14.13;100.00;96144.38;5059705;28;20047;-57
2023/08/03 06:16:44;;;;;;;2.72;0.52;;;;;;;14.06;100.00;96160.31;5059180;28;20048;-56
2023/08/03 06:19:11;;;;;;;1.17;0.40;;;;;;;13.89;100.00;96172.63;5059306;28;20119;-55
2023/08/03 06:21:37;;;;;;;2.35;0.50;;;;;;;13.93;100.00;96183.69;5059494;28;20071;-57
2023/08/03 06:24:04;;;;;;;1.27;0.38;;;;;;;14.16;100.00;96184.59;5060357;28;20045;-57
2023/08/03 06:26:32;;;;;;;3.00;0.50;;;;;;;14.30;100.00;96165.50;5059085;28;20533;-57
2023/08/03 06:29:01;;;;;;;1.95;0.40;;;;;;;14.52;100.00;96152.25;5060811;28;20446;-55
2023/08/03 06:31:39;;;;;;;2.13;0.40;;;;;;;14.80;100.00;96144.00;5058492;28;20379;-57
2023/08/03 06:34:10;;;;;;;3.05;0.50;;;;;;;15.08;100.00;96143.88;5061333;28;20045;-56
2023/08/03 06:36:37;;;;;;;2.73;0.87;;;;;;;15.27;100.00;96137.38;5061152;28;20051;-56
2023/08/03 06:39:05;;;;;;;4.93;0.60;;;;;;;15.37;99.15;96142.56;5062366;28;20040;-56
2023/08/03 06:41:31;;;;;;;1.50;0.47;;;;;;;15.46;97.20;96142.59;5061259;28;20040;-56
2023/08/03 06:44:00;;;;;;;3.55;0.60;;;;;;;15.58;94.63;96142.00;5061497;28;20044;-55
2023/08/03 06:46:26;;;;;;;2.60;0.60;;;;;;;15.70;93.58;96133.25;5060753;28;20036;-57
2023/08/03 06:48:54;;;;;;;2.35;0.73;;;;;;;15.78;93.35;96142.56;5061310;28;20064;-57
2023/08/03 06:51:21;;;;;;;2.50;0.60;;;;;;;15.95;90.21;96139.91;5030261;28;20048;-56
2023/08/03 06:53:48;;;;;;;7.25;0.85;;;;;;;15.95;88.65;96139.91;5061171;28;20044;-56
2023/08/03 06:56:15;;;;;;;2.08;0.70;;;;;;;16.01;86.93;96139.75;5061331;28;20036;-57
2023/08/03 06:58:42;;;;;;;5.53;0.60;;;;;;;16.12;84.90;96144.63;5036211;28;20730;-55
2023/08/03 07:01:08;;;;;;;2.00;0.50;;;;;;;16.26;83.85;96151.88;5037899;28;20040;-53
2023/08/03 07:03:35;;;;;;;2.47;0.73;;;;;;;16.38;79.57;96156.69;5060911;28;20098;-56
2023/08/03 07:06:04;;;;;;;2.13;0.55;;;;;;;16.48;78.16;96148.16;5060420;28;20148;-58
2023/08/03 07:08:31;;;;;;;2.22;0.38;;;;;;;16.55;79.65;96158.63;5062671;28;20032;-53
2023/08/03 07:10:57;;;;;;;2.25;0.82;;;;;;;16.68;78.10;96167.78;5062292;28;20059;-56
2023/08/03 07:13:24;;;;;;;2.53;0.90;;;;;;;16.80;78.47;96172.59;5062536;28;20113;-54
2023/08/03 07:15:50;;;;;;;5.50;0.60;;;;;;;16.84;76.73;96170.06;5062433;28;20520;-55
2023/08/03 07:18:17;;;;;;;4.93;0.70;;;;;;;16.93;75.68;96170.03;5063519;28;20522;-54
2023/08/03 07:20:44;;;;;;;5.00;0.80;;;;;;;17.01;76.16;96172.78;5061305;28;20040;-57
2023/08/03 07:23:10;;;;;;;3.42;0.82;;;;;;;17.09;74.93;96179.38;5063245;28;20579;-55
2023/08/03 07:25:37;;;;;;;1.83;0.40;;;;;;;17.20;73.48;96160.69;5061662;28;20048;-56
2023/08/03 07:28:03;;;;;;;3.00;0.68;;;;;;;17.28;74.43;96176.28;5061940;28;20040;-52
2023/08/03 07:30:30;;;;;;;3.10;0.70;;;;;;;17.32;73.01;96186.59;5062458;28;20045;-56
2023/08/03 07:32:58;;;;;;;3.17;0.70;;;;;;;17.37;71.68;96183.66;5062276;28;20044;-54
2023/08/03 07:35:25;;;;;;;3.13;0.60;;;;;;;17.51;70.96;96181.53;5060508;28;20040;-56
2023/08/03 07:37:52;;;;;;;3.47;0.77;;;;;;;17.62;71.37;96159.28;5062726;28;20106;-57
2023/08/03 07:40:18;;;;;;;5.10;0.95;;;;;;;17.48;69.10;96162.22;5062068;28;20051;-60
2023/08/03 07:42:45;;;;;;;3.67;0.60;;;;;;;17.43;70.13;96182.34;5064116;28;20538;-59
2023/08/03 07:45:11;;;;;;;1.88;0.38;;;;;;;17.22;71.08;96174.84;5061573;28;20054;-59
2023/08/03 07:47:38;;;;;;;2.45;0.47;;;;;;;17.29;69.04;96180.63;5063175;28;20052;-58
2023/08/03 07:50:05;;;;;;;1.25;0.25;;;;;;;17.14;67.74;96179.19;5063296;28;20491;-57
2023/08/03 07:52:31;;;;;;;2.97;0.32;;;;;;;17.07;69.28;96197.22;5061558;28;20079;-57
2023/08/03 07:54:58;;;;;;;2.67;0.52;;;;;;;16.99;67.67;96210.56;5028007;28;20495;-57
2023/08/03 07:57:24;;;;;;;4.68;0.60;;;;;;;17.05;68.94;96194.00;5057810;28;20098;-57
2023/08/03 07:59:51;;;;;;;1.38;0.30;;;;;;;17.18;68.39;96205.91;5063371;28;20055;-58
2023/08/03 08:02:18;;;;;;;2.50;0.50;;;;;;;17.05;70.17;96205.75;5063868;28;20036;-56
2023/08/03 08:04:50;;;;;;;1.67;0.30;;;;;;;17.14;69.54;96209.28;5064438;28;20124;-57
2023/08/03 08:07:17;;;;;;;3.30;0.75;;;;;;;17.22;68.31;96215.88;5062601;28;20041;-57
2023/08/03 08:09:44;;;;;;;2.75;0.40;;;;;;;17.33;68.93;96219.09;5060952;28;20055;-57
2023/08/03 08:12:11;;;;;;;2.15;0.57;;;;;;;17.42;69.62;96208.09;5061603;28;20459;-57
2023/08/03 08:14:37;;;;;;;2.10;0.60;;;;;;;17.45;69.84;96220.34;5061843;28;20055;-56
2023/08/03 08:17:04;;;;;;;2.88;0.60;;;;;;;17.36;69.08;96210.22;5061907;28;20059;-58
2023/08/03 08:19:33;;;;;;;2.20;0.47;;;;;;;17.41;68.41;96210.06;5061497;28;20052;-56
2023/08/03 08:22:00;;;;;;;2.58;0.35;;;;;;;17.47;67.59;96216.13;5061552;28;20052;-58
2023/08/03 08:24:42;;;;;;;2.42;0.45;;;;;;;17.57;66.76;96225.16;5060919;28;20044;-57
2023/08/03 08:27:09;;;;;;;2.70;0.57;;;;;;;17.52;67.55;96217.91;5061734;28;20514;-56
2023/08/03 08:29:37;;;;;;;3.05;0.50;;;;;;;17.59;66.13;96226.44;5058797;28;20048;-59
2023/08/03 08:32:04;;;;;;;4.10;0.90;;;;;;;17.59;66.13;96222.88;5059222;28;20052;-57
2023/08/03 08:34:31;;;;;;;2.90;0.55;;;;;;;17.62;66.10;96233.97;5060439;28;20045;-58
2023/08/03 08:36:58;;;;;;;2.92;0.57;;;;;;;17.88;66.63;96237.78;5061244;28;20036;-57
2023/08/03 08:39:25;;;;;;;4.03;0.52;;;;;;;18.02;66.63;96245.78;5060969;28;20044;-56
2023/08/03 08:41:52;;;;;;;3.25;0.75;;;;;;;18.20;65.71;96244.59;5060113;28;20167;-58
2023/08/03 08:44:18;;;;;;;2.58;0.57;;;;;;;18.33;64.35;96252.91;5062685;28;20064;-58
2023/08/03 08:46:45;;;;;;;1.50;0.50;;;;;;;18.21;65.07;96245.41;5060409;28;20053;-58
2023/08/03 08:49:12;;;;;;;2.85;0.55;;;;;;;18.23;65.22;96262.31;5062432;28;20657;-58
2023/08/03 08:52:01;;;;;;;3.53;0.93;;;;;;;18.36;64.16;96255.00;5060854;28;20054;-59
2023/08/03 08:54:32;;;;;;;1.30;0.43;;;;;;;18.59;63.80;96247.28;5060808;28;20040;-58
2023/08/03 08:57:01;;;;;;;3.47;0.60;;;;;;;18.39;63.67;96257.06;5061430;28;20048;-56
2023/08/03 08:59:35;;;;;;;1.10;0.30;;;;;;;18.64;64.52;96264.69;5060656;28;20051;-57
2023/08/03 09:02:02;;;;;;;1.35;0.60;;;;;;;18.78;63.16;96261.66;5031549;28;20573;-57
2023/08/03 09:04:33;;;;;;;4.03;0.65;;;;;;;18.87;63.26;96270.63;5008818;28;20040;-56
2023/08/03 09:07:02;;;;;;;2.28;0.52;;;;;;;19.03;63.04;96264.56;5017203;28;20600;-57
2023/08/03 09:09:34;;;;;;;1.08;0.20;;;;;;;18.82;62.81;96285.34;5050774;28;20083;-57
2023/08/03 09:12:01;;;;;;;2.70;0.50;;;;;;;18.79;63.14;96279.75;5060643;28;20144;-56
2023/08/03 09:14:28;;;;;;;2.20;0.50;;;;;;;18.82;63.51;96276.31;5060056;28;20044;-57
2023/08/03 09:17:15;;;;;;;2.97;0.52;;;;;;;18.74;64.59;96280.72;5061016;28;20040;-57
2023/08/03 09:19:42;;;;;;;3.88;0.70;;;;;;;18.70;63.75;96288.00;5058650;28;20051;-57
2023/08/03 09:22:29;;;;;;;2.55;0.30;;;;;;;18.77;64.22;96287.47;5060481;28;20051;-57
2023/08/03 09:25:06;;;;;;;3.17;0.40;;;;;;;18.62;63.43;96291.59;5059425;28;20041;-59
2023/08/03 09:27:34;;;;;;;1.75;0.45;;;;;;;18.53;63.66;96291.63;5060533;28;20053;-57
2023/08/03 09:30:05;;;;;;;1.55;0.40;;;;;;;18.50;63.67;96287.63;5059957;28;20028;-55
2023/08/03 09:32:41;;;;;;;2.13;0.38;;;;;;;18.36;63.99;96293.38;5059233;28;20133;-57
2023/08/03 09:35:22;;;;;;;2.53;0.50;;;;;;;18.40;65.30;96302.53;5060738;28;20028;-57
2023/08/03 09:37:51;;;;;;;0.68;0.32;;;;;;;18.55;63.36;96305.84;5060783;28;20588;-56
2023/08/03 09:40:19;;;;;;;5.60;0.50;;;;;;;18.60;64.22;96305.63;5043406;28;21285;-57
2023/08/03 09:42:47;;;;;;;1.58;0.50;;;;;;;18.57;64.01;96307.09;5042390;28;20557;-57
2023/08/03 09:45:15;;;;;;;2.40;0.30;;;;;;;18.75;64.52;96301.53;5058934;28;20116;-57
2023/08/03 09:47:45;;;;;;;1.25;0.43;;;;;;;18.65;63.62;96316.41;5060153;28;20340;-57
2023/08/03 09:50:12;;;;;;;2.15;0.47;;;;;;;18.56;63.89;96302.78;5059867;28;20052;-57
2023/08/03 09:52:46;;;;;;;1.65;0.22;;;;;;;18.64;63.19;96311.28;5058808;28;20036;-57
2023/08/03 09:55:30;;;;;;;0.95;0.35;;;;;;;18.47;64.79;96312.97;5059837;28;20036;-57
2023/08/03 09:58:05;;;;;;;1.17;0.22;;;;;;;18.48;63.33;96316.50;5060167;28;20816;-57
2023/08/03 10:00:33;;;;;;;1.30;0.20;;;;;;;18.48;63.67;96325.53;5057520;28;20063;-54
2023/08/03 10:03:09;;;;;;;1.48;0.40;;;;;;;18.41;64.16;96317.03;5060350;28;20154;-56
2023/08/03 10:05:40;;;;;;;1.00;0.30;;;;;;;18.41;64.58;96337.03;5061203;28;20039;-56
2023/08/03 10:08:15;;;;;;;1.58;0.20;;;;;;;18.51;63.44;96322.16;5061055;28;20036;-57
2023/08/03 10:10:47;;;;;;;1.85;0.40;;;;;;;18.56;64.51;96330.19;5059129;28;20041;-56
2023/08/03 10:13:15;;;;;;;1.20;0.20;;;;;;;18.69;64.07;96328.31;5060618;28;20047;-54
2023/08/03 10:15:42;;;;;;;2.58;0.50;;;;;;;18.88;64.27;96323.53;5058170;28;20667;-57
2023/08/03 10:18:09;;;;;;;3.40;0.45;;;;;;;18.89;63.89;96325.97;5060144;28;20052;-55
2023/08/03 10:20:36;;;;;;;2.60;0.40;;;;;;;19.03;63.47;96338.63;5059031;28;20503;-56
2023/08/03 10:23:10;;;;;;;2.90;0.57;;;;;;;19.17;63.22;96333.69;5060313;28;20580;-58
2023/08/03 10:25:54;;;;;;;0.55;0.22;;;;;;;19.24;64.01;96333.19;5060463;28;20048;-55
2023/08/03 10:28:22;;;;;;;0.63;0.20;;;;;;;19.45;61.70;96337.84;5059002;28;20044;-54
2023/08/03 10:31:05;;;;;;;1.20;0.40;;;;;;;19.31;62.32;96344.41;5061565;28;20049;-56
2023/08/03 10:33:55;;;;;;;0.88;0.20;;;;;;;19.57;61.76;96348.88;5058021;28;20044;-57
2023/08/03 10:36:28;;;;;;;1.00;0.35;;;;;;;19.61;59.82;96340.81;5058227;28;20526;-57
2023/08/03 10:39:01;;;;;;;0.85;0.17;;;;;;;19.53;59.45;96347.94;5062448;28;20052;-57
2023/08/03 10:41:30;;;;;;;1.42;0.35;;;;;;;19.50;60.14;96343.94;5061732;28;20151;-57
2023/08/03 10:44:05;;;;;;;1.02;0.32;;;;;;;19.73;58.61;96346.34;5063003;28;20037;-56
2023/08/03 10:46:47;;;;;;;0.70;0.20;;;;;;;19.86;57.48;96344.44;5063397;28;20072;-57
2023/08/03 10:49:17;;;;;;;1.95;0.40;;;;;;;20.20;59.07;96338.91;5062455;28;20056;-57
2023/08/03 10:51:48;;;;;;;1.80;0.85;;;;;;;19.71;58.99;96340.38;5062642;28;20160;-59
2023/08/03 10:54:17;;;;;;;0.90;0.15;;;;;;;19.87;57.92;96351.53;5063903;28;20518;-56
2023/08/03 10:57:02;;;;;;;2.22;0.50;;;;;;;19.81;59.64;96355.63;5062751;28;20047;-57
2023/08/03 10:59:28;;;;;;;1.33;0.30;;;;;;;19.94;59.15;96355.69;5062527;28;20048;-56
2023/08/03 11:01:55;;;;;;;2.17;0.60;;;;;;;19.88;59.31;96358.63;5063183;28;20048;-57
2023/08/03 11:04:24;;;;;;;4.05;0.50;;;;;;;19.82;59.29;96362.72;5062988;28;20114;-56
2023/08/03 11:06:51;;;;;;;0.57;0.20;;;;;;;19.81;59.96;96358.38;5054013;28;20645;-57
2023/08/03 11:09:18;;;;;;;2.30;0.40;;;;;;;19.65;59.91;96357.38;5027211;28;20127;-57
2023/08/03 11:11:45;;;;;;;2.50;0.30;;;;;;;19.33;59.90;96366.03;5048918;28;20048;-57
2023/08/03 11:14:13;;;;;;;1.90;0.30;;;;;;;19.28;59.29;96369.81;5063966;28;20047;-57
2023/08/03 11:16:40;;;;;;;4.10;0.43;;;;;;;19.41;61.36;96372.59;5063783;28;20052;-53
2023/08/03 11:19:07;;;;;;;0.93;0.30;;;;;;;19.63;60.36;96361.28;5060833;28;20138;-56
2023/08/03 11:21:34;;;;;;;2.72;0.45;;;;;;;19.85;58.01;96366.72;5061956;28;20499;-57
2023/08/03 11:24:00;;;;;;;2.47;0.85;;;;;;;19.87;58.31;96351.53;5061566;28;20049;-57
2023/08/03 11:26:27;;;;;;;1.73;0.40;;;;;;;19.94;58.39;96361.94;5047379;28;20051;-57
2023/08/03 11:28:54;;;;;;;0.65;0.15;;;;;;;20.26;58.72;96361.50;5062748;28;20047;-57
2023/08/03 11:31:21;;;;;;;2.60;0.57;;;;;;;19.91;57.22;96345.34;5062142;28;20041;-57
2023/08/03 11:33:51;;;;;;;2.28;0.70;;;;;;;20.04;57.21;96357.22;5062290;28;20123;-55
2023/08/03 11:36:22;;;;;;;0.50;0.10;;;;;;;20.45;56.94;96360.94;5061870;28;20048;-57
2023/08/03 11:38:50;;;;;;;0.50;0.20;;;;;;;20.58;56.62;96356.28;5061356;28;20045;-58